This is the latest recevied weather packets stored in our database for station/object GW1699. If no packets are shown the sender has not sent any weather packets the latest 10 day(s).
| Time | Temp. | Humidity | Pressure | Rain* | Wind** | Luminosity | Snow |
|---|---|---|---|---|---|---|---|
| 1777789092 | 0° C | 98% | 1015.5 hPa | 0 mm | - | - | - |
| 1777786957 | 0.56° C | 97% | 1015.9 hPa | 0 mm | - | - | - |
| 1777786583 | 0.56° C | 97% | 1015.5 hPa | 0 mm | - | - | - |
| 1777786251 | 0.56° C | 97% | 1015.5 hPa | 0 mm | - | - | - |
| 1777785535 | 0.56° C | 96% | 1015.5 hPa | 0 mm | - | - | - |
| 1777783725 | 1.11° C | 94% | 1015.5 hPa | 0 mm | - | - | - |
| 1777783362 | 1.11° C | 94% | 1015.5 hPa | 0 mm | - | - | - |
| 1777782283 | 1.67° C | 93% | 1015.5 hPa | 0 mm | - | - | - |
| 1777781903 | 1.67° C | 92% | 1015.5 hPa | 0 mm | - | - | - |
| 1777781183 | 2.22° C | 90% | 1015.5 hPa | 0 mm | - | - | - |
| 1777780492 | 2.22° C | 90% | 1015.5 hPa | 0 mm | - | - | - |
| 1777779736 | 2.78° C | 89% | 1015.5 hPa | 0 mm | - | - | - |
| 1777777224 | 4.44° C | 82% | 1015.5 hPa | 0 mm | - | - | - |
| 1777775778 | 5° C | 77% | 1015.2 hPa | 0 mm | - | - | - |
| 1777771814 | 6.67° C | 68% | 1014.9 hPa | 0 mm | - | - | - |
| 1777769324 | 7.22° C | 71% | 1014.2 hPa | 0 mm | - | - | - |
| 1777767495 | 8.89° C | 55% | 1013.8 hPa | 0 mm | - | - | - |
| 1777765721 | 9.44° C | 50% | 1013.5 hPa | 0 mm | - | - | - |
| 1777763532 | 10° C | 45% | 1013.2 hPa | 0 mm | - | - | - |
| 1777758852 | 10.56° C | 41% | 1012.5 hPa | 0 mm | - | - | - |
| 1777755634 | 11.11° C | 43% | 1012.1 hPa | 0 mm | - | - | - |
| 1777751654 | 11.11° C | 41% | 1012.5 hPa | 0 mm | - | - | - |
| 1777750969 | 12.22° C | 44% | 1012.8 hPa | 0 mm | - | - | - |
| 1777746280 | 11.67° C | 42% | 1013.2 hPa | 0 mm | - | - | - |
| 1777745574 | 11.67° C | 41% | 1013.2 hPa | 0 mm | - | - | - |
* Rain since midnight (hover to see other rain measurements)
** Current wind speed in m/s (hover to see current wind gust speed)